Time;durP1;ratioP1;P1;durP2;ratioP2;P2;SDS_P1;SDS_P2;PMS_P1;PMS_P2;Temp;Humidity;BMP_temperature;BMP_pressure;BME280_temperature;BME280_humidity;BME280_pressure;Samples;Min_cycle;Max_cycle;Signal;HPM_P1;HPM_P2
2022/12/26 00:01:47;;;;;;;120.93;27.70;;;8.00;99.90;;;;;;6158845;23;20021;-86
2022/12/26 00:04:14;;;;;;;80.00;24.37;;;8.00;99.90;;;;;;6184411;23;20015;-86
2022/12/26 00:06:40;;;;;;;86.53;23.57;;;7.90;99.90;;;;;;6157567;23;20024;-86
2022/12/26 00:09:06;;;;;;;89.83;24.70;;;9.00;99.90;;;;;;6180115;23;20009;-86
2022/12/26 00:11:33;;;;;;;100.67;24.53;;;8.80;99.90;;;;;;6184397;23;20017;-85
2022/12/26 00:14:04;;;;;;;90.60;23.50;;;9.20;99.90;;;;;;6158467;23;20044;-86
2022/12/26 00:16:29;;;;;;;75.33;22.63;;;9.10;99.90;;;;;;6157882;23;20346;-86
2022/12/26 00:18:55;;;;;;;73.97;22.90;;;7.90;99.90;;;;;;6182243;23;20021;-86
2022/12/26 00:21:22;;;;;;;76.90;21.80;;;8.00;99.90;;;;;;6158196;23;20464;-86
2022/12/26 00:23:48;;;;;;;53.97;19.23;;;9.40;99.90;;;;;;6184735;23;20345;-86
2022/12/26 00:26:16;;;;;;;70.53;20.97;;;7.90;99.90;;;;;;6184075;23;20032;-85
2022/12/26 00:28:42;;;;;;;74.13;21.20;;;8.00;99.90;;;;;;6185179;23;20345;-86
2022/12/26 00:31:14;;;;;;;75.27;21.13;;;8.00;99.90;;;;;;6161761;23;20103;-86
2022/12/26 00:33:40;;;;;;;72.68;21.10;;;7.90;99.90;;;;;;6184264;23;20046;-86
2022/12/26 00:36:12;;;;;;;71.10;20.80;;;8.00;99.90;;;;;;6158758;23;20017;-86
2022/12/26 00:38:38;;;;;;;68.53;20.73;;;7.90;99.90;;;;;;6187915;23;20021;-86
2022/12/26 00:41:05;;;;;;;66.60;19.53;;;7.90;99.90;;;;;;6183755;23;20013;-86
2022/12/26 00:43:31;;;;;;;74.17;20.27;;;7.90;99.90;;;;;;6184543;23;20080;-86
2022/12/26 00:45:56;;;;;;;60.50;19.07;;;8.00;99.90;;;;;;6185150;23;20476;-86
2022/12/26 00:48:22;;;;;;;63.30;17.97;;;9.40;99.90;;;;;;6183588;23;20075;-85
2022/12/26 00:50:48;;;;;;;69.27;19.70;;;9.20;99.90;;;;;;6158567;23;20104;-85
2022/12/26 00:53:14;;;;;;;75.22;19.83;;;7.90;99.90;;;;;;6157925;23;20028;-85
2022/12/26 00:55:39;;;;;;;91.13;21.60;;;9.50;99.90;;;;;;6183242;23;20013;-85
2022/12/26 00:58:10;;;;;;;68.17;20.77;;;7.20;99.90;;;;;;6158448;23;20021;-85
2022/12/26 01:00:37;;;;;;;75.70;19.35;;;8.80;99.90;;;;;;6184962;23;20017;-85
2022/12/26 01:03:05;;;;;;;55.67;18.83;;;7.90;99.90;;;;;;6157101;23;20020;-85
2022/12/26 01:05:30;;;;;;;58.20;18.03;;;8.00;99.90;;;;;;6157795;23;20095;-85
2022/12/26 01:07:56;;;;;;;70.17;18.80;;;7.90;99.90;;;;;;6157016;23;20044;-85
2022/12/26 01:10:22;;;;;;;65.13;19.50;;;9.00;99.90;;;;;;6184771;23;20020;-85
2022/12/26 01:12:47;;;;;;;47.33;17.57;;;8.00;99.90;;;;;;6158154;23;20080;-84
2022/12/26 01:15:14;;;;;;;57.80;18.77;;;8.00;99.90;;;;;;6156830;23;20067;-85
2022/12/26 01:17:46;;;;;;;68.60;19.10;;;8.80;99.90;;;;;;6184084;23;20100;-84
2022/12/26 01:20:11;;;;;;;55.35;17.95;;;8.20;99.90;;;;;;6184189;23;20354;-86
2022/12/26 01:22:37;;;;;;;75.43;20.60;;;8.00;99.90;;;;;;6157654;23;20337;-85
2022/12/26 01:25:03;;;;;;;69.60;20.30;;;8.70;99.90;;;;;;6157611;23;20013;-85
2022/12/26 01:27:29;;;;;;;74.60;20.05;;;8.00;99.90;;;;;;6158536;23;20063;-84
2022/12/26 01:29:55;;;;;;;56.90;18.70;;;9.20;99.90;;;;;;6186304;23;20182;-84
2022/12/26 01:32:21;;;;;;;57.73;19.07;;;8.80;99.90;;;;;;6152694;23;20017;-84
2022/12/26 01:34:47;;;;;;;51.77;17.73;;;8.40;99.90;;;;;;6160144;23;20084;-85
2022/12/26 01:37:15;;;;;;;46.60;16.27;;;8.00;99.90;;;;;;6186126;23;20099;-85
2022/12/26 01:39:42;;;;;;;45.50;16.47;;;8.00;99.90;;;;;;6160659;23;20349;-85
2022/12/26 01:42:12;;;;;;;45.42;16.33;;;8.10;99.90;;;;;;6186787;23;20458;-85
2022/12/26 01:45:06;;;;;;;39.60;15.67;;;8.60;99.90;;;;;;6186355;23;20005;-85
2022/12/26 01:47:44;;;;;;;35.90;14.40;;;8.00;99.90;;;;;;6186726;23;20028;-85
2022/12/26 01:50:41;;;;;;;41.17;14.93;;;8.00;99.90;;;;;;6185977;23;20012;-85
2022/12/26 01:53:18;;;;;;;33.83;14.80;;;8.00;99.90;;;;;;6160453;23;20512;-85
2022/12/26 01:55:50;;;;;;;41.43;15.40;;;8.10;99.90;;;;;;6186651;23;20049;-85
2022/12/26 01:58:22;;;;;;;37.87;15.00;;;8.10;99.90;;;;;;6159177;23;20021;-85
2022/12/26 02:00:49;;;;;;;37.83;15.07;;;9.40;99.90;;;;;;6160382;23;20020;-85
2022/12/26 02:06:14;;;;;;;40.90;15.67;;;8.10;99.90;;;;;;6095077;23;20079;-85
2022/12/26 02:08:40;;;;;;;37.90;15.17;;;9.30;99.90;;;;;;6160272;23;20025;-85
2022/12/26 02:11:18;;;;;;;40.77;14.63;;;8.10;99.90;;;;;;6186304;23;20023;-85
2022/12/26 02:13:44;;;;;;;44.80;16.00;;;8.10;99.90;;;;;;6186791;23;20044;-85
2022/12/26 02:16:13;;;;;;;43.33;17.50;;;9.40;99.90;;;;;;6159782;23;20100;-85
2022/12/26 02:18:38;;;;;;;52.85;17.85;;;8.10;99.90;;;;;;6185229;23;20017;-86
2022/12/26 02:21:31;;;;;;;47.40;18.37;;;9.30;99.90;;;;;;6186655;23;20024;-86
2022/12/26 02:24:36;;;;;;;48.30;18.37;;;8.20;99.90;;;;;;6160148;23;20025;-85
2022/12/26 02:27:13;;;;;;;46.47;18.50;;;8.20;99.90;;;;;;6189325;23;20088;-86
2022/12/26 02:29:41;;;;;;;48.88;19.80;;;8.20;99.90;;;;;;6186597;23;20013;-85
2022/12/26 02:32:31;;;;;;;58.70;20.93;;;8.10;99.90;;;;;;6160158;23;20021;-85
2022/12/26 02:35:06;;;;;;;47.33;20.80;;;8.20;99.90;;;;;;6180574;23;20125;-85
2022/12/26 02:37:37;;;;;;;61.07;22.10;;;8.80;99.90;;;;;;6186093;23;20342;-85
2022/12/26 02:40:18;;;;;;;58.33;21.77;;;8.20;99.90;;;;;;6159175;23;20013;-85
2022/12/26 02:43:15;;;;;;;53.27;21.67;;;9.20;99.90;;;;;;6160282;23;20021;-85
2022/12/26 02:49:04;;;;;;;69.17;23.83;;;8.20;99.90;;;;;;6159521;23;20021;-85
2022/12/26 03:17:18;;;;;;;47.57;21.47;;;8.30;99.90;;;;;;6158881;23;20021;-86
2022/12/26 03:18:17;;;;;;;46.47;20.63;;;9.60;99.90;;;;;;6158830;23;20457;-86
2022/12/26 03:20:43;;;;;;;45.67;20.77;;;9.70;99.90;;;;;;6160077;23;20394;-85
2022/12/26 03:23:14;;;;;;;46.80;21.77;;;8.40;99.90;;;;;;6185470;23;20053;-85
2022/12/26 03:28:26;;;;;;;53.73;22.40;;;8.40;99.90;;;;;;6185539;23;20032;-85
2022/12/26 03:30:54;;;;;;;51.90;22.07;;;9.40;99.90;;;;;;6159752;23;20438;-85
2022/12/26 03:36:17;;;;;;;;;;;9.50;99.90;;;;;;6185725;23;20023;-85
2022/12/26 03:38:54;;;;;;;57.07;22.43;;;9.40;99.90;;;;;;6160009;23;19987;-85
2022/12/26 04:19:34;;;;;;;56.73;21.27;;;8.50;99.90;;;;;;6063902;23;20026;-85
2022/12/26 04:45:08;;;;;;;50.47;19.60;;;8.50;99.90;;;;;;6158727;23;20100;-85
2022/12/26 04:47:34;;;;;;;47.67;19.00;;;8.50;99.90;;;;;;6184703;23;20020;-85
2022/12/26 04:50:11;;;;;;;51.77;19.70;;;9.50;99.90;;;;;;6158447;23;20063;-86
2022/12/26 04:52:53;;;;;;;47.75;20.33;;;8.50;99.90;;;;;;6158816;23;20458;-85
2022/12/26 04:55:19;;;;;;;47.23;19.07;;;8.50;99.90;;;;;;6185159;23;20013;-85
2022/12/26 04:57:45;;;;;;;44.73;18.87;;;8.50;99.90;;;;;;6185341;23;20079;-85
2022/12/26 05:00:11;;;;;;;45.37;18.90;;;8.70;99.90;;;;;;6150824;23;20156;-85
2022/12/26 05:10:52;;;;;;;47.33;18.97;;;8.40;99.90;;;;;;6185470;23;19944;-86
2022/12/26 05:13:18;;;;;;;51.40;20.30;;;8.40;99.90;;;;;;6158688;23;20468;-85
2022/12/26 05:29:27;;;;;;;46.70;19.88;;;8.40;99.90;;;;;;6214127;23;20055;-85
2022/12/26 05:31:52;;;;;;;51.67;21.17;;;8.40;99.90;;;;;;6215399;23;20016;-85
2022/12/26 05:34:20;;;;;;;45.47;19.70;;;8.40;99.90;;;;;;6188019;23;20017;-85
2022/12/26 05:36:52;;;;;;;42.83;20.03;;;9.40;99.90;;;;;;6213826;23;20311;-85
2022/12/26 05:39:18;;;;;;;42.30;19.53;;;8.80;99.90;;;;;;6215088;23;20013;-85
2022/12/26 05:41:44;;;;;;;43.50;19.73;;;8.60;99.90;;;;;;6188367;23;20075;-85
2022/12/26 05:44:10;;;;;;;39.30;18.00;;;8.40;99.90;;;;;;6213853;23;20080;-85
2022/12/26 05:46:37;;;;;;;40.53;19.30;;;8.40;99.90;;;;;;6188067;23;20040;-85
2022/12/26 05:49:04;;;;;;;38.57;19.30;;;8.40;99.90;;;;;;6187965;23;20384;-84
2022/12/26 05:51:30;;;;;;;39.93;18.70;;;8.40;99.90;;;;;;6187485;23;20025;-85
2022/12/26 05:53:56;;;;;;;39.10;18.57;;;9.10;99.90;;;;;;6189759;23;20020;-85
2022/12/26 05:56:21;;;;;;;42.13;19.67;;;9.60;99.90;;;;;;6188997;23;20031;-85
2022/12/26 05:58:56;;;;;;;42.67;19.13;;;9.60;99.90;;;;;;6188553;23;20377;-85
2022/12/26 06:01:23;;;;;;;40.47;18.97;;;8.30;99.90;;;;;;6214633;23;20013;-85
2022/12/26 06:03:51;;;;;;;35.90;17.47;;;8.30;99.90;;;;;;6187131;23;20024;-85
2022/12/26 06:06:17;;;;;;;35.63;17.63;;;8.30;99.90;;;;;;6214823;23;20024;-85
2022/12/26 06:08:45;;;;;;;34.72;17.58;;;8.30;99.90;;;;;;6188210;23;20071;-85
2022/12/26 06:11:24;;;;;;;37.07;18.70;;;8.30;99.90;;;;;;6183424;23;20341;-85
2022/12/26 06:14:00;;;;;;;34.20;16.60;;;8.30;99.90;;;;;;6215552;23;20464;-85
2022/12/26 06:16:26;;;;;;;34.23;17.83;;;7.80;99.90;;;;;;6189711;23;20016;-85
2022/12/26 06:18:53;;;;;;;33.97;17.87;;;8.20;99.90;;;;;;6215656;23;20013;-85
2022/12/26 06:21:20;;;;;;;35.90;18.00;;;8.20;99.90;;;;;;6216360;23;20020;-85
2022/12/26 06:23:46;;;;;;;34.60;17.57;;;8.20;99.90;;;;;;6216877;23;20024;-84
2022/12/26 06:29:19;;;;;;;37.27;19.13;;;8.20;99.90;;;;;;6159478;23;20017;-84
2022/12/26 06:31:44;;;;;;;34.33;17.67;;;8.10;99.90;;;;;;6159215;23;20437;-84
2022/12/26 06:34:11;;;;;;;35.40;17.63;;;8.10;99.90;;;;;;6159771;23;20017;-85
2022/12/26 06:36:37;;;;;;;34.67;18.50;;;8.20;99.90;;;;;;6169568;23;20013;-85
2022/12/26 06:39:03;;;;;;;35.23;18.33;;;9.50;99.90;;;;;;6156788;23;20453;-85
2022/12/26 06:41:40;;;;;;;34.60;17.37;;;8.10;99.90;;;;;;6159417;23;20033;-85
2022/12/26 06:44:06;;;;;;;30.60;16.97;;;7.80;99.90;;;;;;6186813;23;20009;-85
2022/12/26 06:46:32;;;;;;;34.13;17.23;;;7.70;99.90;;;;;;6158970;23;20323;-84
2022/12/26 06:48:58;;;;;;;31.80;17.47;;;7.70;99.90;;;;;;6186554;23;20369;-84
2022/12/26 06:51:25;;;;;;;33.37;17.73;;;8.00;99.90;;;;;;6185954;23;20068;-85
2022/12/26 06:53:52;;;;;;;35.30;17.37;;;9.60;99.90;;;;;;6159237;23;20032;-85
2022/12/26 06:56:24;;;;;;;34.33;17.90;;;8.20;99.90;;;;;;6159678;23;20021;-83
2022/12/26 06:59:00;;;;;;;33.03;17.50;;;8.20;99.90;;;;;;6159838;23;20546;-82
2022/12/26 07:01:28;;;;;;;31.73;16.63;;;8.20;99.90;;;;;;6158440;23;20091;-82
2022/12/26 07:03:54;;;;;;;33.83;17.73;;;8.20;99.90;;;;;;6159601;23;20017;-82
2022/12/26 07:06:40;;;;;;;30.80;17.53;;;8.20;99.90;;;;;;6159463;23;20017;-83
2022/12/26 07:09:11;;;;;;;34.03;17.73;;;8.10;99.90;;;;;;6168046;23;20311;-82
2022/12/26 07:11:39;;;;;;;35.60;18.60;;;8.30;99.90;;;;;;6184019;23;20017;-83
2022/12/26 07:14:05;;;;;;;35.77;19.40;;;9.10;99.90;;;;;;6156955;23;20428;-83
2022/12/26 07:16:34;;;;;;;35.17;19.30;;;8.00;99.90;;;;;;6185035;23;20106;-82
2022/12/26 07:19:00;;;;;;;34.67;18.70;;;7.90;99.90;;;;;;6157783;23;20021;-84
2022/12/26 07:21:26;;;;;;;38.50;19.50;;;7.90;99.90;;;;;;6183101;23;20024;-81
2022/12/26 07:23:53;;;;;;;37.23;19.90;;;7.80;99.90;;;;;;6185524;23;20024;-84
2022/12/26 07:26:19;;;;;;;40.40;19.97;;;7.80;99.90;;;;;;6181883;23;20025;-83
2022/12/26 07:28:45;;;;;;;40.90;21.07;;;7.80;99.90;;;;;;6184499;23;20072;-82
2022/12/26 07:31:18;;;;;;;39.87;20.23;;;7.80;99.90;;;;;;6158168;23;20052;-85
2022/12/26 07:33:49;;;;;;;39.10;20.20;;;7.70;99.90;;;;;;6158109;23;20322;-82
2022/12/26 07:36:16;;;;;;;38.17;20.20;;;7.70;99.90;;;;;;6155680;23;20028;-82
2022/12/26 07:38:42;;;;;;;37.30;19.60;;;7.70;99.90;;;;;;6157575;23;20040;-81
2022/12/26 07:43:53;;;;;;;41.30;20.80;;;7.90;99.90;;;;;;6153540;23;20021;-81
2022/12/26 07:46:19;;;;;;;42.33;22.40;;;7.80;99.90;;;;;;6158200;23;20029;-83
2022/12/26 07:48:44;;;;;;;39.40;21.40;;;7.90;99.90;;;;;;6157237;23;20021;-83
2022/12/26 07:51:10;;;;;;;46.17;22.37;;;7.90;99.90;;;;;;6182864;23;20515;-82
2022/12/26 07:53:36;;;;;;;37.97;19.60;;;7.90;99.90;;;;;;6183671;23;20058;-82
2022/12/26 07:56:02;;;;;;;39.27;19.97;;;7.90;99.90;;;;;;6157520;23;20256;-82
2022/12/26 07:58:27;;;;;;;37.17;20.03;;;8.00;99.90;;;;;;6158511;23;20371;-82
2022/12/26 08:00:53;;;;;;;36.67;20.13;;;7.90;99.90;;;;;;6185492;23;20096;-82
2022/12/26 08:03:19;;;;;;;37.30;19.53;;;8.00;99.90;;;;;;6157452;23;20017;-83
2022/12/26 08:05:48;;;;;;;33.37;17.47;;;8.00;99.90;;;;;;6158465;23;20021;-82
2022/12/26 08:08:14;;;;;;;35.73;18.53;;;7.90;99.90;;;;;;6185191;23;20017;-82
2022/12/26 08:10:40;;;;;;;38.30;20.10;;;7.90;99.90;;;;;;6184456;23;20095;-82
2022/12/26 08:13:05;;;;;;;36.33;19.40;;;7.90;99.90;;;;;;6158576;23;20346;-83
2022/12/26 08:15:31;;;;;;;34.40;18.13;;;7.80;99.90;;;;;;6184363;23;20017;-82
2022/12/26 08:17:57;;;;;;;32.73;17.40;;;7.80;99.90;;;;;;6184712;23;20088;-82
2022/12/26 08:20:22;;;;;;;31.97;17.17;;;7.80;99.90;;;;;;6184861;23;20048;-82
2022/12/26 08:22:48;;;;;;;31.80;16.50;;;7.70;99.90;;;;;;6159659;23;20024;-82
2022/12/26 08:25:14;;;;;;;33.50;18.60;;;7.70;99.90;;;;;;6158147;23;20064;-81
2022/12/26 08:27:39;;;;;;;33.57;19.50;;;7.70;99.90;;;;;;6158724;23;20390;-83
2022/12/26 08:30:06;;;;;;;36.23;19.17;;;8.20;99.90;;;;;;6188619;23;20017;-83
2022/12/26 08:32:31;;;;;;;37.20;18.27;;;7.70;99.90;;;;;;6156753;23;20407;-83
2022/12/26 08:34:57;;;;;;;30.43;16.00;;;7.60;99.90;;;;;;6157868;23;20020;-82
2022/12/26 08:37:23;;;;;;;34.50;19.97;;;7.60;99.90;;;;;;6157367;23;20017;-82
2022/12/26 08:39:52;;;;;;;26.07;15.53;;;8.50;99.90;;;;;;6157285;23;20010;-81
2022/12/26 08:42:18;;;;;;;25.83;13.37;;;7.70;99.90;;;;;;6158205;23;20496;-82
2022/12/26 08:44:44;;;;;;;24.73;14.00;;;7.70;99.90;;;;;;6158252;23;20009;-84
2022/12/26 08:47:10;;;;;;;25.63;13.30;;;7.70;99.90;;;;;;6183599;23;20017;-85
2022/12/26 08:49:36;;;;;;;25.57;13.53;;;7.80;99.90;;;;;;6185039;23;20020;-83
2022/12/26 08:52:01;;;;;;;24.83;12.77;;;7.80;99.90;;;;;;6183893;23;20036;-87
2022/12/26 08:54:27;;;;;;;24.40;12.97;;;7.90;99.90;;;;;;6158013;23;20021;-85
2022/12/26 08:57:02;;;;;;;21.03;11.80;;;7.90;99.90;;;;;;6158867;23;20013;-89
2022/12/26 08:59:43;;;;;;;21.43;12.17;;;8.00;99.90;;;;;;6184099;23;20013;-89
2022/12/26 09:02:15;;;;;;;20.47;11.77;;;9.60;99.90;;;;;;6152302;23;20009;-85
2022/12/26 09:04:59;;;;;;;22.03;11.87;;;8.00;99.90;;;;;;6157976;23;20079;-85
2022/12/26 09:07:40;;;;;;;;;;;7.60;99.90;;;;;;6157599;23;20020;-84
2022/12/26 09:10:06;;;;;;;20.73;10.97;;;8.20;99.90;;;;;;6185019;23;19916;-83
2022/12/26 09:12:50;;;;;;;21.17;11.63;;;8.30;99.90;;;;;;6184079;23;20110;-83
2022/12/26 09:15:15;;;;;;;21.17;13.13;;;8.30;99.90;;;;;;6156488;23;20437;-84
2022/12/26 09:17:56;;;;;;;24.70;15.73;;;8.40;99.90;;;;;;6157417;23;20058;-84
2022/12/26 09:20:22;;;;;;;18.60;11.27;;;9.70;99.90;;;;;;6146802;23;20398;-81
2022/12/26 09:23:00;;;;;;;18.87;12.13;;;9.80;99.90;;;;;;6154723;23;20017;-83
2022/12/26 09:25:37;;;;;;;26.37;19.63;;;8.70;99.90;;;;;;6154413;23;20017;-83
2022/12/26 09:28:03;;;;;;;18.03;10.07;;;10.10;99.90;;;;;;6153916;23;20022;-83
2022/12/26 09:30:38;;;;;;;17.20;9.37;;;8.70;99.90;;;;;;6127985;23;20020;-83
2022/12/26 09:33:22;;;;;;;22.43;16.37;;;9.20;99.90;;;;;;6154652;23;20103;-83
2022/12/26 09:35:48;;;;;;;;;;;8.60;99.90;;;;;;6128099;23;20018;-83
2022/12/26 09:38:26;;;;;;;22.37;13.93;;;10.00;99.90;;;;;;6128504;23;19995;-83
2022/12/26 09:41:38;;;;;;;23.57;17.70;;;10.30;99.90;;;;;;6154762;23;20022;-83
2022/12/26 09:44:24;;;;;;;16.00;8.60;;;8.90;99.90;;;;;;6128294;23;20032;-83
2022/12/26 09:50:13;;;;;;;17.90;8.47;;;9.00;99.90;;;;;;6183570;23;20052;-83
2022/12/26 09:52:54;;;;;;;13.27;6.90;;;9.80;99.90;;;;;;6159386;23;20071;-83
2022/12/26 09:55:41;;;;;;;14.40;7.13;;;10.60;99.90;;;;;;6158209;23;20068;-83
2022/12/26 09:58:27;;;;;;;13.87;7.80;;;10.50;99.90;;;;;;6185993;23;20013;-82
2022/12/26 10:02:00;;;;;;;12.70;6.57;;;9.00;99.90;;;;;;6186994;23;20060;-84
2022/12/26 10:04:34;;;;;;;14.23;7.03;;;9.20;99.90;;;;;;6164754;23;20068;-81
2022/12/26 10:07:24;;;;;;;12.33;6.23;;;10.00;99.90;;;;;;6191396;23;20009;-81
2022/12/26 10:10:44;;;;;;;13.83;5.90;;;8.20;99.90;;;;;;6166222;23;20342;-82
2022/12/26 10:13:41;;;;;;;12.33;5.90;;;9.10;99.90;;;;;;6160084;23;20025;-82
2022/12/26 10:16:35;;;;;;;13.40;6.97;;;9.20;99.90;;;;;;6169150;23;20077;-82
2022/12/26 10:19:29;;;;;;;10.33;4.27;;;9.20;99.90;;;;;;6195275;23;20023;-83
2022/12/26 10:22:07;;;;;;;10.97;4.87;;;9.30;99.90;;;;;;6195951;23;20044;-82
2022/12/26 10:24:47;;;;;;;11.97;5.20;;;10.50;99.90;;;;;;6194410;23;20021;-80
2022/12/26 10:27:49;;;;;;;12.00;5.27;;;10.70;99.90;;;;;;6168342;23;20025;-82
2022/12/26 10:30:24;;;;;;;10.83;4.13;;;9.20;99.90;;;;;;6189173;23;20458;-83
2022/12/26 10:33:34;;;;;;;12.07;6.80;;;9.20;99.90;;;;;;6168868;23;20025;-83
2022/12/26 10:36:00;;;;;;;11.87;4.33;;;9.10;99.90;;;;;;6103548;23;20142;-82
2022/12/26 10:38:37;;;;;;;14.00;4.37;;;9.00;99.90;;;;;;6077705;23;20027;-83
2022/12/26 10:41:40;;;;;;;13.00;3.27;;;8.90;99.90;;;;;;6134733;23;20021;-81
2022/12/26 10:44:27;;;;;;;11.20;2.93;;;8.50;99.90;;;;;;6141052;23;20028;-82
2022/12/26 10:47:31;;;;;;;9.93;2.30;;;8.00;99.90;;;;;;6171026;23;20083;-82
2022/12/26 10:49:58;;;;;;;12.07;2.30;;;7.80;99.90;;;;;;6163320;23;20048;-83
2022/12/26 10:52:43;;;;;;;13.13;2.43;;;9.10;99.90;;;;;;6193536;23;20021;-82
2022/12/26 10:55:18;;;;;;;12.23;2.63;;;7.80;99.90;;;;;;6193842;23;20056;-80
2022/12/26 10:57:48;;;;;;;11.00;2.00;;;7.80;99.90;;;;;;6191937;23;20017;-82
2022/12/26 11:00:35;;;;;;;10.93;2.40;;;7.80;99.90;;;;;;6190757;23;20073;-82
2022/12/26 11:03:14;;;;;;;11.00;2.80;;;8.80;99.90;;;;;;6169050;23;20054;-81
2022/12/26 11:05:44;;;;;;;12.63;3.20;;;7.90;99.90;;;;;;6169690;23;20016;-81
2022/12/26 11:08:48;;;;;;;14.30;3.93;;;8.90;99.90;;;;;;6166156;23;20112;-83
2022/12/26 11:11:22;;;;;;;13.17;4.47;;;7.70;99.90;;;;;;6078944;23;20030;-81
2022/12/26 11:13:52;;;;;;;14.73;2.70;;;7.70;99.90;;;;;;6078676;23;20022;-82
2022/12/26 11:16:56;;;;;;;10.47;2.70;;;7.60;99.90;;;;;;6077202;23;20046;-80
2022/12/26 11:19:37;;;;;;;11.40;2.03;;;7.50;99.90;;;;;;6068066;23;20019;-83
2022/12/26 11:22:24;;;;;;;9.40;2.03;;;7.50;99.90;;;;;;6064059;23;20019;-83
2022/12/26 11:25:45;;;;;;;10.33;2.00;;;7.50;99.90;;;;;;6054388;23;20026;-82
2022/12/26 11:28:23;;;;;;;10.07;2.33;;;7.50;99.90;;;;;;6129681;23;20025;-83
2022/12/26 11:30:49;;;;;;;23.13;8.60;;;7.40;99.90;;;;;;6154140;23;20021;-81
2022/12/26 11:33:25;;;;;;;9.47;2.30;;;7.90;99.90;;;;;;6169397;23;20022;-81
2022/12/26 11:36:29;;;;;;;15.73;2.83;;;7.30;99.90;;;;;;6191731;23;20025;-84
2022/12/26 11:39:05;;;;;;;8.73;1.70;;;7.30;99.90;;;;;;6161958;23;20017;-81
2022/12/26 11:41:39;;;;;;;11.53;2.10;;;7.30;99.90;;;;;;6166585;23;20093;-82
2022/12/26 11:44:23;;;;;;;10.75;2.20;;;7.20;99.90;;;;;;6167698;23;20016;-82
2022/12/26 11:47:15;;;;;;;10.97;2.10;;;7.20;99.90;;;;;;6191328;23;20458;-82
2022/12/26 11:50:16;;;;;;;10.87;2.30;;;7.10;99.90;;;;;;6156528;23;20019;-80
2022/12/26 11:52:57;;;;;;;10.00;2.57;;;6.30;99.90;;;;;;6158858;23;20449;-81
2022/12/26 11:55:23;;;;;;;11.90;2.23;;;8.60;99.90;;;;;;6157922;23;20021;-81
2022/12/26 11:58:05;;;;;;;11.87;2.33;;;7.10;99.90;;;;;;6185728;23;20382;-83
2022/12/26 12:00:49;;;;;;;12.80;3.23;;;8.00;99.90;;;;;;6185564;23;20017;-81
2022/12/26 12:03:40;;;;;;;12.27;2.50;;;8.20;99.90;;;;;;6158248;23;20021;-81
2022/12/26 12:06:39;;;;;;;14.90;3.10;;;8.20;99.90;;;;;;6158789;23;20023;-81
2022/12/26 12:09:33;;;;;;;11.73;1.90;;;7.00;99.90;;;;;;6184848;23;20017;-81
2022/12/26 12:12:24;;;;;;;12.15;2.85;;;7.00;99.90;;;;;;6159012;23;20557;-81
2022/12/26 12:15:11;;;;;;;9.80;2.20;;;7.00;99.90;;;;;;6159336;23;20013;-81
2022/12/26 12:18:01;;;;;;;9.17;2.23;;;7.20;99.90;;;;;;6156612;23;20021;-80
2022/12/26 12:20:31;;;;;;;6.80;1.70;;;6.90;99.90;;;;;;6157918;23;20017;-82
2022/12/26 12:23:28;;;;;;;9.70;2.03;;;6.90;99.90;;;;;;6158577;23;20421;-81
2022/12/26 12:26:30;;;;;;;9.10;2.20;;;6.90;99.90;;;;;;6158310;23;20024;-84
2022/12/26 12:29:11;;;;;;;11.17;2.50;;;6.90;99.90;;;;;;6185098;23;20409;-84
2022/12/26 12:31:39;;;;;;;23.77;12.23;;;6.90;99.90;;;;;;6158032;23;20075;-81
2022/12/26 12:34:30;;;;;;;9.77;2.40;;;6.90;99.90;;;;;;6158416;23;20031;-83
2022/12/26 12:37:12;;;;;;;15.80;2.67;;;6.90;99.90;;;;;;6185252;23;20021;-81
2022/12/26 12:39:46;;;;;;;13.43;3.50;;;6.90;99.90;;;;;;6185173;23;20017;-80
2022/12/26 12:42:31;;;;;;;14.27;3.37;;;7.00;99.90;;;;;;6184343;23;20467;-81
2022/12/26 12:45:40;;;;;;;13.10;2.73;;;7.10;99.90;;;;;;6184550;23;20024;-81
2022/12/26 12:48:21;;;;;;;14.87;3.40;;;7.00;99.90;;;;;;6127989;23;20032;-81
2022/12/26 12:51:24;;;;;;;14.63;2.40;;;7.10;99.90;;;;;;6184570;23;20013;-80
2022/12/26 12:54:14;;;;;;;13.87;2.83;;;7.10;99.90;;;;;;6184883;23;20028;-82
2022/12/26 12:56:48;;;;;;;16.23;2.93;;;7.30;99.90;;;;;;6185272;23;20437;-83
2022/12/26 12:59:35;;;;;;;13.17;2.47;;;8.30;99.90;;;;;;6157690;23;20065;-84
2022/12/26 13:02:14;;;;;;;12.20;2.30;;;7.20;99.90;;;;;;6159104;23;20017;-81
2022/12/26 13:04:46;;;;;;;14.43;4.00;;;7.20;99.90;;;;;;6185828;23;20013;-79
2022/12/26 13:07:18;;;;;;;13.63;2.37;;;7.20;99.90;;;;;;6184310;23;20013;-80
2022/12/26 13:09:50;;;;;;;10.90;2.03;;;7.20;99.90;;;;;;6185520;23;20009;-80
2022/12/26 13:12:33;;;;;;;13.83;3.00;;;7.20;99.90;;;;;;6157160;23;20025;-81
2022/12/26 13:15:05;;;;;;;12.93;2.33;;;7.20;99.90;;;;;;6185380;23;20329;-80
2022/12/26 13:17:48;;;;;;;11.40;2.20;;;8.00;99.90;;;;;;6158330;23;20017;-80
2022/12/26 13:20:21;;;;;;;12.53;2.43;;;7.10;99.90;;;;;;6183951;23;20024;-80
2022/12/26 13:25:48;;;;;;;15.80;2.43;;;7.10;99.90;;;;;;6185134;23;20024;-80
2022/12/26 13:28:33;;;;;;;14.77;2.80;;;7.30;99.90;;;;;;6157329;23;20014;-80
2022/12/26 13:30:58;;;;;;;13.83;2.87;;;7.10;99.90;;;;;;6158858;23;20024;-80
2022/12/26 13:33:24;;;;;;;15.27;2.73;;;7.10;99.90;;;;;;6183993;23;20076;-80
2022/12/26 13:35:57;;;;;;;11.60;2.63;;;7.00;99.90;;;;;;6184746;23;20013;-81
2022/12/26 13:38:24;;;;;;;12.73;2.77;;;7.10;99.90;;;;;;6158277;23;20388;-81
2022/12/26 13:44:04;;;;;;;14.57;2.53;;;7.10;99.90;;;;;;6184600;23;20025;-81
2022/12/26 13:46:43;;;;;;;14.18;2.95;;;6.90;99.90;;;;;;6184852;23;20048;-81
2022/12/26 13:49:35;;;;;;;15.37;2.93;;;7.10;99.90;;;;;;6156781;23;20052;-81
2022/12/26 13:52:10;;;;;;;14.10;2.40;;;7.00;99.90;;;;;;6158519;23;20064;-81
2022/12/26 13:54:49;;;;;;;12.87;2.10;;;6.90;99.90;;;;;;6184065;23;20483;-81
2022/12/26 13:57:28;;;;;;;11.27;2.50;;;7.40;99.90;;;;;;6184747;23;20036;-81
2022/12/26 14:00:14;;;;;;;15.97;2.97;;;6.80;99.90;;;;;;6158482;23;20021;-82
2022/12/26 14:03:21;;;;;;;13.93;2.40;;;6.70;99.90;;;;;;6157611;23;20092;-82
2022/12/26 14:06:20;;;;;;;13.17;2.80;;;6.50;99.90;;;;;;6184636;23;20036;-81
2022/12/26 14:09:03;;;;;;;14.80;3.13;;;6.50;99.90;;;;;;6157401;23;20017;-81
2022/12/26 14:12:06;;;;;;;13.13;2.70;;;6.40;99.90;;;;;;6182491;23;20023;-81
2022/12/26 14:14:44;;;;;;;16.20;3.00;;;6.40;99.90;;;;;;6157294;23;20013;-81
2022/12/26 14:17:14;;;;;;;15.37;2.30;;;6.30;99.90;;;;;;6182555;23;20017;-81
2022/12/26 14:20:03;;;;;;;11.60;2.10;;;6.30;99.90;;;;;;6157532;23;20015;-81
2022/12/26 14:22:40;;;;;;;17.10;2.77;;;6.30;99.90;;;;;;6136363;23;20036;-81
2022/12/26 14:25:23;;;;;;;12.70;2.53;;;6.20;99.90;;;;;;6157283;23;20048;-81
2022/12/26 14:28:04;;;;;;;7.90;2.20;;;6.10;99.90;;;;;;6157728;23;20017;-81
2022/12/26 14:30:47;;;;;;;11.93;2.33;;;6.10;99.90;;;;;;6156763;23;20044;-81
2022/12/26 14:33:33;;;;;;;9.48;2.17;;;6.10;99.90;;;;;;6156999;23;20025;-80
2022/12/26 14:36:20;;;;;;;14.67;2.77;;;6.10;99.90;;;;;;6143216;23;20017;-80
2022/12/26 14:38:54;;;;;;;13.30;2.30;;;6.00;99.90;;;;;;6158947;23;20028;-80
2022/12/26 14:44:12;;;;;;;15.53;2.50;;;6.40;99.90;;;;;;6159656;23;20171;-80
2022/12/26 14:46:39;;;;;;;13.75;2.90;;;6.10;99.90;;;;;;6159537;23;20021;-81
2022/12/26 14:49:22;;;;;;;10.80;2.70;;;6.10;99.90;;;;;;6153393;23;20071;-80
2022/12/26 14:51:48;;;;;;;16.75;2.75;;;6.10;99.90;;;;;;6155859;23;20140;-80
2022/12/26 14:54:21;;;;;;;15.80;2.60;;;6.10;99.90;;;;;;6156256;23;20045;-81
2022/12/26 14:56:48;;;;;;;13.40;3.00;;;6.00;99.90;;;;;;6130267;23;20028;-80
2022/12/26 14:59:31;;;;;;;11.90;2.43;;;5.90;99.90;;;;;;6154780;23;20513;-80
2022/12/26 15:02:20;;;;;;;18.13;3.22;;;6.00;99.90;;;;;;6155749;23;20028;-81
2022/12/26 15:05:00;;;;;;;12.77;3.00;;;5.80;99.90;;;;;;6120647;23;20354;-81
2022/12/26 15:07:31;;;;;;;13.87;2.80;;;5.70;99.90;;;;;;6155764;23;20029;-81
2022/12/26 15:10:17;;;;;;;13.83;3.10;;;5.60;99.90;;;;;;6129746;23;20350;-81
2022/12/26 15:13:11;;;;;;;15.27;6.03;;;5.50;99.90;;;;;;6155475;23;20097;-81
2022/12/26 15:15:45;;;;;;;15.60;4.97;;;5.40;99.90;;;;;;6130074;23;20045;-81
2022/12/26 15:18:45;;;;;;;16.90;5.17;;;5.40;99.90;;;;;;6129479;23;20076;-81
2022/12/26 15:21:32;;;;;;;28.70;12.77;;;5.30;99.90;;;;;;6154666;23;20044;-80
2022/12/26 15:24:46;;;;;;;19.80;5.80;;;5.30;99.90;;;;;;6130130;23;20010;-80
2022/12/26 15:27:38;;;;;;;16.13;4.67;;;5.20;99.90;;;;;;6146385;23;20080;-80
2022/12/26 15:30:30;;;;;;;24.30;10.70;;;5.20;99.90;;;;;;6130042;23;20079;-80
2022/12/26 15:33:39;;;;;;;18.13;6.47;;;5.10;99.90;;;;;;6128764;23;20021;-80
2022/12/26 15:36:12;;;;;;;25.97;10.10;;;5.10;99.90;;;;;;6041499;23;20094;-80
2022/12/26 15:38:46;;;;;;;25.95;11.68;;;5.00;99.90;;;;;;6066006;23;20026;-80
2022/12/26 15:41:36;;;;;;;19.90;7.70;;;5.10;99.90;;;;;;6091042;23;20028;-80